Time,TemperatureF,DewpointF,PressureIn,WindDirection,WindDirectionDegrees,WindSpeedMPH,WindSpeedGustMPH,Humidity,HourlyPrecipIn,Conditions,Clouds,dailyrainin,SoftwareType,DateUTC
2013-02-27 00:01:00,45.7,45.1,29.18,NE,45,0.0,0.0,97,0.00,,,0.65,fowsr,2013-02-27 05:01:00,
2013-02-27 00:06:00,45.5,44.9,29.18,NE,45,0.0,0.0,97,0.00,,,0.65,fowsr,2013-02-27 05:06:00,
2013-02-27 00:11:00,45.3,44.7,29.18,NE,45,0.0,0.0,97,0.00,,,0.65,fowsr,2013-02-27 05:11:00,
2013-02-27 00:16:00,45.3,44.7,29.18,SE,135,0.0,0.0,97,0.00,,,0.65,fowsr,2013-02-27 05:16:00,
2013-02-27 00:21:00,45.3,44.7,29.18,SE,135,0.0,0.0,97,0.00,,,0.65,fowsr,2013-02-27 05:21:00,
2013-02-27 00:26:00,45.3,44.7,29.17,SE,135,0.0,0.0,97,0.00,,,0.65,fowsr,2013-02-27 05:26:00,
2013-02-27 00:31:00,45.1,44.5,29.18,SE,135,0.0,0.0,97,0.00,,,0.65,fowsr,2013-02-27 05:31:00,
2013-02-27 00:36:00,45.1,44.5,29.18,SE,135,0.0,0.0,97,0.00,,,0.65,fowsr,2013-02-27 05:36:00,
2013-02-27 00:41:00,45.0,44.4,29.18,West,270,0.0,0.0,97,0.00,,,0.65,fowsr,2013-02-27 05:41:00,
2013-02-27 00:46:00,44.6,44.0,29.18,West,270,0.0,0.0,97,0.00,,,0.65,fowsr,2013-02-27 05:46:00,
2013-02-27 00:51:00,44.2,43.8,29.18,West,270,0.0,0.0,98,0.00,,,0.65,fowsr,2013-02-27 05:51:00,
2013-02-27 00:56:00,44.1,43.7,29.18,West,270,0.0,0.0,98,0.00,,,0.65,fowsr,2013-02-27 05:56:00,
2013-02-27 01:01:00,43.9,43.5,29.18,West,270,0.0,0.0,98,0.00,,,0.65,fowsr,2013-02-27 06:01:00,
2013-02-27 01:06:00,43.9,43.5,29.19,West,270,0.0,0.0,98,0.00,,,0.65,fowsr,2013-02-27 06:06:00,
2013-02-27 01:11:00,43.9,43.5,29.19,West,270,0.0,0.0,98,0.00,,,0.65,fowsr,2013-02-27 06:11:00,
2013-02-27 01:16:00,43.9,43.5,29.19,West,270,0.0,0.0,98,0.00,,,0.65,fowsr,2013-02-27 06:16:00,
2013-02-27 01:21:00,44.2,43.8,29.19,SSE,157,0.0,0.0,98,0.00,,,0.65,fowsr,2013-02-27 06:21:00,
2013-02-27 01:26:00,44.8,44.2,29.19,SW,225,0.7,1.6,97,0.00,,,0.65,fowsr,2013-02-27 06:26:00,
2013-02-27 01:31:00,45.3,44.7,29.19,South,180,0.0,0.0,97,0.00,,,0.65,fowsr,2013-02-27 06:31:00,
2013-02-27 01:36:00,45.7,45.1,29.19,NW,315,0.7,2.2,97,0.00,,,0.65,fowsr,2013-02-27 06:36:00,
2013-02-27 01:41:00,45.9,45.3,29.19,NW,315,0.7,2.2,97,0.00,,,0.65,fowsr,2013-02-27 06:41:00,
2013-02-27 01:46:00,46.0,45.4,29.19,South,180,1.6,3.1,97,0.00,,,0.65,fowsr,2013-02-27 06:46:00,
2013-02-27 01:51:00,46.0,45.4,29.20,SW,225,1.6,3.8,97,0.00,,,0.65,fowsr,2013-02-27 06:51:00,
2013-02-27 01:56:00,45.9,45.3,29.19,West,270,2.2,3.1,97,0.00,,,0.65,fowsr,2013-02-27 06:56:00,
2013-02-27 02:01:00,45.7,45.1,29.19,SE,135,1.6,3.8,97,0.00,,,0.65,fowsr,2013-02-27 07:01:00,
2013-02-27 02:06:00,45.7,45.1,29.20,East,90,0.7,2.2,97,0.00,,,0.65,fowsr,2013-02-27 07:06:00,
2013-02-27 02:11:00,45.5,44.9,29.20,NNW,337,0.0,0.7,97,0.00,,,0.65,fowsr,2013-02-27 07:11:00,
2013-02-27 02:16:00,45.5,44.9,29.21,NW,315,2.2,3.1,97,0.00,,,0.65,fowsr,2013-02-27 07:16:00,
2013-02-27 02:21:00,45.5,44.9,29.21,East,90,0.0,1.6,97,0.00,,,0.65,fowsr,2013-02-27 07:21:00,
2013-02-27 02:26:00,45.5,44.9,29.20,SE,135,0.7,2.2,97,0.00,,,0.65,fowsr,2013-02-27 07:26:00,
2013-02-27 02:31:00,45.3,44.7,29.21,SE,135,0.7,3.1,97,0.00,,,0.65,fowsr,2013-02-27 07:31:00,
2013-02-27 02:36:00,45.1,44.5,29.21,East,90,1.6,3.1,97,0.00,,,0.65,fowsr,2013-02-27 07:36:00,
2013-02-27 02:41:00,45.0,44.4,29.21,NW,315,0.7,2.2,97,0.00,,,0.65,fowsr,2013-02-27 07:41:00,
2013-02-27 02:46:00,44.8,44.2,29.20,SSE,157,0.7,1.6,97,0.00,,,0.65,fowsr,2013-02-27 07:46:00,
2013-02-27 02:51:00,44.8,44.2,29.20,SW,225,1.6,3.8,97,0.00,,,0.65,fowsr,2013-02-27 07:51:00,
2013-02-27 02:56:00,44.8,44.2,29.20,West,270,0.0,1.6,97,0.00,,,0.65,fowsr,2013-02-27 07:56:00,
2013-02-27 03:01:00,44.8,44.2,29.20,North,0,0.0,0.7,97,0.00,,,0.65,fowsr,2013-02-27 08:01:00,
2013-02-27 03:06:00,44.8,44.2,29.20,North,0,0.0,0.7,97,0.00,,,0.65,fowsr,2013-02-27 08:06:00,
2013-02-27 03:11:00,44.6,44.0,29.19,East,90,0.0,1.6,97,0.00,,,0.65,fowsr,2013-02-27 08:11:00,
2013-02-27 03:16:00,44.6,44.0,29.19,SSE,157,0.0,0.7,97,0.00,,,0.65,fowsr,2013-02-27 08:16:00,
2013-02-27 03:21:00,44.6,44.0,29.18,North,0,0.0,1.6,97,0.00,,,0.65,fowsr,2013-02-27 08:21:00,
2013-02-27 03:26:00,44.6,44.0,29.18,SSE,157,0.7,2.2,97,0.00,,,0.65,fowsr,2013-02-27 08:26:00,
2013-02-27 03:31:00,44.4,44.0,29.18,SE,135,0.0,0.7,98,0.00,,,0.65,fowsr,2013-02-27 08:31:00,
2013-02-27 03:36:00,44.4,44.0,29.18,NW,315,0.0,0.0,98,0.00,,,0.65,fowsr,2013-02-27 08:36:00,
2013-02-27 03:41:00,44.2,43.8,29.19,West,270,1.6,3.1,98,0.00,,,0.65,fowsr,2013-02-27 08:41:00,
2013-02-27 03:46:00,44.2,43.8,29.19,NW,315,1.6,3.1,98,0.00,,,0.65,fowsr,2013-02-27 08:46:00,
2013-02-27 03:51:00,44.2,43.8,29.19,NW,315,0.7,1.6,98,0.00,,,0.65,fowsr,2013-02-27 08:51:00,
2013-02-27 03:56:00,44.2,43.8,29.19,West,270,0.0,1.6,98,0.00,,,0.65,fowsr,2013-02-27 08:56:00,
2013-02-27 04:01:00,44.2,43.8,29.19,West,270,0.7,3.1,98,0.00,,,0.65,fowsr,2013-02-27 09:01:00,
2013-02-27 04:06:00,44.2,43.8,29.20,West,270,0.0,0.7,98,0.00,,,0.65,fowsr,2013-02-27 09:06:00,
2013-02-27 04:11:00,44.2,43.8,29.20,NW,315,0.0,0.7,98,0.00,,,0.65,fowsr,2013-02-27 09:11:00,
2013-02-27 04:16:00,44.2,43.8,29.20,NW,315,3.1,4.5,98,0.00,,,0.65,fowsr,2013-02-27 09:16:00,
2013-02-27 04:21:00,44.2,43.8,29.20,SW,225,0.7,2.2,98,0.00,,,0.65,fowsr,2013-02-27 09:21:00,
2013-02-27 04:26:00,44.2,43.8,29.20,West,270,0.0,0.7,98,0.00,,,0.65,fowsr,2013-02-27 09:26:00,
2013-02-27 04:31:00,44.2,43.8,29.20,SW,225,0.7,2.2,98,0.00,,,0.65,fowsr,2013-02-27 09:31:00,
2013-02-27 04:36:00,44.2,43.8,29.20,West,270,1.6,3.1,98,0.00,,,0.65,fowsr,2013-02-27 09:36:00,
2013-02-27 04:41:00,44.2,43.8,29.21,West,270,0.7,1.6,98,0.00,,,0.65,fowsr,2013-02-27 09:41:00,
2013-02-27 04:46:00,44.2,43.8,29.21,SE,135,0.0,0.7,98,0.00,,,0.65,fowsr,2013-02-27 09:46:00,
2013-02-27 04:51:00,44.4,44.0,29.21,West,270,0.0,0.7,98,0.00,,,0.65,fowsr,2013-02-27 09:51:00,
2013-02-27 04:56:00,44.4,43.8,29.22,SW,225,0.7,1.6,97,0.00,,,0.65,fowsr,2013-02-27 09:56:00,
2013-02-27 05:01:00,44.4,43.8,29.22,SE,135,0.0,1.6,97,0.00,,,0.65,fowsr,2013-02-27 10:01:00,
2013-02-27 05:06:00,44.4,43.8,29.22,SE,135,0.0,1.6,97,0.00,,,0.65,fowsr,2013-02-27 10:06:00,
2013-02-27 05:11:00,44.4,43.6,29.22,West,270,0.7,1.6,96,0.00,,,0.65,fowsr,2013-02-27 10:11:00,
2013-02-27 05:17:00,44.4,43.4,29.22,West,270,0.7,3.8,95,0.00,,,0.65,fowsr,2013-02-27 10:17:00,
2013-02-27 05:26:00,44.4,43.2,29.22,NW,315,1.6,2.2,94,0.00,,,0.65,fowsr,2013-02-27 10:26:00,
2013-02-27 05:31:00,44.4,43.0,29.22,SE,135,0.7,2.2,93,0.00,,,0.65,fowsr,2013-02-27 10:31:00,
2013-02-27 05:36:00,44.4,43.0,29.23,NW,315,1.6,4.5,93,0.01,,,0.66,fowsr,2013-02-27 10:36:00,
2013-02-27 05:41:00,44.4,42.8,29.23,SW,225,0.0,1.6,92,0.01,,,0.66,fowsr,2013-02-27 10:41:00,
2013-02-27 05:46:00,44.2,42.6,29.23,West,270,0.7,1.6,92,0.01,,,0.66,fowsr,2013-02-27 10:46:00,
2013-02-27 05:51:00,44.2,42.6,29.24,NE,45,0.0,0.7,92,0.01,,,0.66,fowsr,2013-02-27 10:51:00,
2013-02-27 05:56:00,44.1,42.5,29.24,South,180,0.7,2.2,92,0.01,,,0.66,fowsr,2013-02-27 10:56:00,
2013-02-27 06:01:00,44.1,42.5,29.24,NW,315,0.0,0.7,92,0.01,,,0.66,fowsr,2013-02-27 11:01:00,
2013-02-27 06:07:00,43.9,42.3,29.24,West,270,0.7,1.6,92,0.01,,,0.66,fowsr,2013-02-27 11:07:00,
2013-02-27 06:16:00,43.7,42.1,29.24,West,270,0.0,0.7,92,0.01,,,0.66,fowsr,2013-02-27 11:16:00,
2013-02-27 06:21:00,43.5,41.9,29.24,SW,225,0.0,0.7,92,0.01,,,0.66,fowsr,2013-02-27 11:21:00,
2013-02-27 06:26:00,43.5,41.9,29.25,West,270,0.0,1.6,92,0.01,,,0.66,fowsr,2013-02-27 11:26:00,
2013-02-27 06:31:00,43.5,41.9,29.25,SE,135,1.6,2.2,92,0.01,,,0.66,fowsr,2013-02-27 11:31:00,
2013-02-27 06:36:00,43.5,41.9,29.25,SE,135,0.0,0.0,92,0.01,,,0.66,fowsr,2013-02-27 11:36:00,
2013-02-27 06:41:00,43.5,41.9,29.25,West,270,0.0,0.7,92,0.00,,,0.66,fowsr,2013-02-27 11:41:00,
2013-02-27 06:46:00,43.5,41.9,29.25,West,270,0.0,0.7,92,0.00,,,0.65,fowsr,2013-02-27 11:46:00,
2013-02-27 06:51:00,43.5,41.9,29.25,SE,135,0.0,0.7,92,0.00,,,0.64,fowsr,2013-02-27 11:51:00,
2013-02-27 06:56:00,43.5,41.9,29.26,NW,315,1.6,3.1,92,0.00,,,0.64,fowsr,2013-02-27 11:56:00,
2013-02-27 07:01:00,43.5,41.9,29.26,SW,225,0.7,2.2,92,0.00,,,0.63,fowsr,2013-02-27 12:01:00,
2013-02-27 07:06:00,43.7,42.1,29.27,North,0,0.0,0.0,92,0.00,,,0.61,fowsr,2013-02-27 12:06:00,
2013-02-27 07:11:00,43.7,42.1,29.27,NW,315,0.0,1.6,92,0.00,,,0.60,fowsr,2013-02-27 12:11:00,
2013-02-27 07:22:00,43.7,42.1,29.28,SE,135,2.2,3.8,92,0.00,,,0.59,fowsr,2013-02-27 12:22:00,
2013-02-27 07:31:00,43.7,42.1,29.28,South,180,0.0,0.7,92,0.00,,,0.57,fowsr,2013-02-27 12:31:00,
2013-02-27 07:36:00,43.7,42.1,29.28,NW,315,0.0,0.7,92,0.00,,,0.56,fowsr,2013-02-27 12:36:00,
2013-02-27 07:41:00,43.7,42.1,29.28,West,270,0.0,0.7,92,0.00,,,0.54,fowsr,2013-02-27 12:41:00,
2013-02-27 07:46:00,43.9,42.3,29.29,SE,135,0.0,0.7,92,0.00,,,0.53,fowsr,2013-02-27 12:46:00,
2013-02-27 07:51:00,43.9,42.3,29.30,SE,135,0.0,0.7,92,0.00,,,0.53,fowsr,2013-02-27 12:51:00,
2013-02-27 07:57:00,43.9,42.3,29.30,NW,315,0.7,1.6,92,0.00,,,0.53,fowsr,2013-02-27 12:57:00,
2013-02-27 08:02:00,43.9,42.3,29.31,NW,315,0.7,1.6,92,0.00,,,0.52,fowsr,2013-02-27 13:02:00,
2013-02-27 08:11:00,44.4,43.0,29.31,South,180,0.0,0.7,93,0.00,,,0.52,fowsr,2013-02-27 13:11:00,
2013-02-27 08:16:00,44.8,43.2,29.31,SE,135,0.0,0.7,92,0.00,,,0.51,fowsr,2013-02-27 13:16:00,
2013-02-27 08:21:00,45.0,43.3,29.32,South,180,0.7,2.2,92,0.00,,,0.51,fowsr,2013-02-27 13:21:00,
2013-02-27 08:26:00,45.1,43.3,29.32,North,0,0.0,1.6,91,0.00,,,0.51,fowsr,2013-02-27 13:26:00,
2013-02-27 08:31:00,45.3,43.5,29.33,West,270,2.2,3.8,91,0.00,,,0.51,fowsr,2013-02-27 13:31:00,
2013-02-27 08:36:00,45.3,43.3,29.33,West,270,0.0,0.7,90,0.00,,,0.51,fowsr,2013-02-27 13:36:00,
2013-02-27 08:41:00,45.5,43.5,29.33,North,0,0.0,1.6,90,0.00,,,0.50,fowsr,2013-02-27 13:41:00,
2013-02-27 08:46:00,45.7,43.6,29.33,East,90,1.6,2.2,90,0.00,,,0.50,fowsr,2013-02-27 13:46:00,
2013-02-27 08:51:00,45.9,43.6,29.33,West,270,1.6,3.1,89,0.00,,,0.50,fowsr,2013-02-27 13:51:00,
2013-02-27 08:56:00,46.2,43.9,29.33,NW,315,0.7,2.2,89,0.00,,,0.50,fowsr,2013-02-27 13:56:00,
2013-02-27 09:01:00,46.4,43.7,29.33,SE,135,0.0,0.7,87,0.00,,,0.48,fowsr,2013-02-27 14:01:00,
2013-02-27 09:06:00,46.4,43.5,29.33,West,270,1.6,3.1,86,0.00,,,0.48,fowsr,2013-02-27 14:06:00,
2013-02-27 09:12:00,46.8,43.6,29.33,NW,315,0.7,2.2,85,0.00,,,0.47,fowsr,2013-02-27 14:12:00,
2013-02-27 09:21:00,47.7,44.2,29.33,South,180,0.0,1.6,84,0.00,,,0.46,fowsr,2013-02-27 14:21:00,
2013-02-27 09:26:00,48.6,44.9,29.33,NW,315,0.7,2.2,83,0.00,,,0.45,fowsr,2013-02-27 14:26:00,
2013-02-27 09:36:00,49.5,44.3,29.33,NW,315,0.0,1.6,77,0.00,,,0.43,fowsr,2013-02-27 14:36:00,
2013-02-27 09:41:00,49.6,44.5,29.33,South,180,0.7,1.6,77,0.00,,,0.43,fowsr,2013-02-27 14:41:00,
2013-02-27 09:47:00,49.8,44.1,29.33,NW,315,0.7,2.2,75,0.00,,,0.43,fowsr,2013-02-27 14:47:00,
2013-02-27 09:56:00,50.9,44.1,29.33,SW,225,0.7,1.6,71,0.00,,,0.41,fowsr,2013-02-27 14:56:00,
2013-02-27 10:01:00,51.6,44.5,29.33,SW,225,1.6,4.5,70,0.00,,,0.41,fowsr,2013-02-27 15:01:00,
2013-02-27 10:06:00,52.2,44.5,29.33,SW,225,1.6,2.2,68,0.00,,,0.40,fowsr,2013-02-27 15:06:00,
2013-02-27 10:11:00,52.7,44.1,29.33,NW,315,2.2,3.1,65,0.00,,,0.40,fowsr,2013-02-27 15:11:00,
2013-02-27 10:16:00,52.9,44.3,29.33,SSE,157,1.6,3.1,65,0.00,,,0.39,fowsr,2013-02-27 15:16:00,
2013-02-27 10:21:00,53.2,44.0,29.33,South,180,0.7,1.6,63,0.00,,,0.39,fowsr,2013-02-27 15:21:00,
2013-02-27 10:26:00,53.8,43.9,29.34,NW,315,2.2,3.8,61,0.00,,,0.38,fowsr,2013-02-27 15:26:00,
2013-02-27 10:32:00,53.8,42.9,29.34,West,270,0.7,1.6,58,0.00,,,0.37,fowsr,2013-02-27 15:32:00,
2013-02-27 10:37:00,54.1,43.3,29.34,SW,225,1.6,3.1,58,0.00,,,0.37,fowsr,2013-02-27 15:37:00,
2013-02-27 10:46:00,54.7,43.4,29.34,South,180,1.6,3.1,57,0.00,,,0.33,fowsr,2013-02-27 15:46:00,
2013-02-27 10:51:00,54.9,42.2,29.34,NW,315,1.6,3.1,53,0.00,,,0.32,fowsr,2013-02-27 15:51:00,
2013-02-27 10:56:00,55.6,43.6,29.34,SW,225,3.8,5.4,55,0.00,,,0.31,fowsr,2013-02-27 15:56:00,
2013-02-27 11:01:00,55.9,43.2,29.34,South,180,0.0,1.6,53,0.00,,,0.29,fowsr,2013-02-27 16:01:00,
2013-02-27 11:11:00,56.5,42.9,29.34,NW,315,1.6,2.2,51,0.00,,,0.28,fowsr,2013-02-27 16:11:00,
2013-02-27 11:17:00,56.5,42.6,29.34,NE,45,0.7,2.2,50,0.00,,,0.27,fowsr,2013-02-27 16:17:00,
2013-02-27 11:26:00,56.8,43.6,29.34,SE,135,1.6,3.1,52,0.00,,,0.26,fowsr,2013-02-27 16:26:00,
2013-02-27 11:31:00,57.2,43.2,29.34,SW,225,2.2,4.5,50,0.00,,,0.25,fowsr,2013-02-27 16:31:00,
2013-02-27 11:36:00,57.4,42.2,29.33,NW,315,1.6,3.1,47,0.00,,,0.25,fowsr,2013-02-27 16:36:00,
2013-02-27 11:41:00,58.1,43.6,29.33,West,270,2.2,3.8,49,0.00,,,0.24,fowsr,2013-02-27 16:41:00,
2013-02-27 11:46:00,57.9,41.8,29.33,West,270,0.0,0.7,45,0.00,,,0.22,fowsr,2013-02-27 16:46:00,
2013-02-27 11:51:00,58.3,43.0,29.32,West,270,1.6,3.1,47,0.00,,,0.21,fowsr,2013-02-27 16:51:00,
2013-02-27 11:56:00,58.1,41.1,29.32,SE,135,2.2,5.4,43,0.00,,,0.20,fowsr,2013-02-27 16:56:00,
2013-02-27 12:01:00,57.7,41.3,29.33,NW,315,0.7,2.2,44,0.00,,,0.20,fowsr,2013-02-27 17:01:00,
2013-02-27 12:06:00,58.1,42.0,29.32,NW,315,2.2,3.8,45,0.00,,,0.19,fowsr,2013-02-27 17:06:00,
2013-02-27 12:11:00,58.5,41.5,29.32,North,0,0.7,2.2,43,0.00,,,0.19,fowsr,2013-02-27 17:11:00,
2013-02-27 12:16:00,59.0,41.9,29.31,NW,315,1.6,3.1,43,0.00,,,0.18,fowsr,2013-02-27 17:16:00,
2013-02-27 12:21:00,59.7,43.5,29.32,ENE,67,0.7,1.6,45,0.00,,,0.17,fowsr,2013-02-27 17:21:00,
2013-02-27 12:26:00,60.4,43.2,29.32,South,180,1.6,2.2,43,0.00,,,0.15,fowsr,2013-02-27 17:26:00,
2013-02-27 12:31:00,60.1,41.5,29.32,WNW,292,2.2,3.1,40,0.00,,,0.14,fowsr,2013-02-27 17:31:00,
2013-02-27 12:36:00,59.5,41.0,29.32,West,270,2.2,3.1,40,0.00,,,0.14,fowsr,2013-02-27 17:36:00,
2013-02-27 12:41:00,59.5,41.5,29.32,West,270,0.7,2.2,41,0.00,,,0.14,fowsr,2013-02-27 17:41:00,
2013-02-27 12:46:00,59.7,41.7,29.31,West,270,1.6,3.8,41,0.00,,,0.14,fowsr,2013-02-27 17:46:00,
2013-02-27 12:51:00,59.9,41.8,29.31,NW,315,1.6,3.1,41,0.00,,,0.13,fowsr,2013-02-27 17:51:00,
2013-02-27 12:56:00,60.1,42.0,29.31,West,270,3.1,6.0,41,0.00,,,0.13,fowsr,2013-02-27 17:56:00,
2013-02-27 13:06:00,60.3,42.1,29.30,West,270,1.6,4.5,41,0.00,,,0.13,fowsr,2013-02-27 18:06:00,
2013-02-27 13:11:00,60.6,42.5,29.30,West,270,1.6,3.1,41,0.00,,,0.12,fowsr,2013-02-27 18:11:00,
2013-02-27 13:16:00,61.2,42.5,29.29,West,270,1.6,3.1,40,0.00,,,0.12,fowsr,2013-02-27 18:16:00,
2013-02-27 13:21:00,61.2,42.0,29.28,North,0,1.6,2.2,39,0.00,,,0.12,fowsr,2013-02-27 18:21:00,
2013-02-27 13:26:00,61.3,43.1,29.29,South,180,1.6,4.5,41,0.00,,,0.12,fowsr,2013-02-27 18:26:00,
2013-02-27 13:31:00,61.7,42.9,29.29,SW,225,0.0,0.7,40,0.00,,,0.12,fowsr,2013-02-27 18:31:00,
2013-02-27 13:36:00,62.1,42.8,29.29,North,0,0.0,0.7,39,0.00,,,0.11,fowsr,2013-02-27 18:36:00,
2013-02-27 13:41:00,62.2,43.4,29.29,South,180,3.8,6.0,40,0.00,,,0.08,fowsr,2013-02-27 18:41:00,
2013-02-27 13:46:00,62.4,43.1,29.29,NE,45,0.0,1.6,39,0.00,,,0.08,fowsr,2013-02-27 18:46:00,
2013-02-27 13:51:00,62.4,42.1,29.29,South,180,1.6,3.1,37,0.00,,,0.07,fowsr,2013-02-27 18:51:00,
2013-02-27 13:56:00,62.6,42.7,29.29,North,0,1.6,3.1,38,0.00,,,0.06,fowsr,2013-02-27 18:56:00,
2013-02-27 14:01:00,62.8,42.9,29.29,SE,135,1.6,3.8,38,0.00,,,0.06,fowsr,2013-02-27 19:01:00,
2013-02-27 14:06:00,62.6,42.2,29.29,NW,315,0.7,1.6,37,0.00,,,0.05,fowsr,2013-02-27 19:06:00,
2013-02-27 14:11:00,62.8,42.4,29.29,SW,225,0.7,2.2,37,0.00,,,0.05,fowsr,2013-02-27 19:11:00,
2013-02-27 14:16:00,62.8,41.3,29.29,NW,315,2.2,3.8,35,0.00,,,0.05,fowsr,2013-02-27 19:16:00,
2013-02-27 14:21:00,62.2,42.4,29.28,SE,135,0.0,1.6,38,0.00,,,0.05,fowsr,2013-02-27 19:21:00,
2013-02-27 14:26:00,63.0,43.1,29.29,NW,315,1.6,2.2,38,0.00,,,0.05,fowsr,2013-02-27 19:26:00,
2013-02-27 14:31:00,62.8,42.4,29.28,East,90,0.7,3.1,37,0.00,,,0.05,fowsr,2013-02-27 19:31:00,
2013-02-27 14:36:00,63.3,43.4,29.28,SE,135,0.7,2.2,38,0.00,,,0.05,fowsr,2013-02-27 19:36:00,
2013-02-27 14:41:00,63.1,42.7,29.28,West,270,1.6,3.8,37,0.00,,,0.05,fowsr,2013-02-27 19:41:00,
2013-02-27 14:46:00,63.1,43.2,29.28,NW,315,1.6,2.2,38,0.00,,,0.04,fowsr,2013-02-27 19:46:00,
2013-02-27 14:51:00,63.3,43.4,29.28,NW,315,0.0,0.7,38,0.00,,,0.04,fowsr,2013-02-27 19:51:00,
2013-02-27 14:56:00,62.8,42.4,29.28,NE,45,1.6,3.1,37,0.00,,,0.04,fowsr,2013-02-27 19:56:00,
2013-02-27 15:01:00,62.8,42.9,29.28,NNE,22,1.6,3.1,38,0.00,,,0.04,fowsr,2013-02-27 20:01:00,
2013-02-27 15:06:00,62.8,42.9,29.28,SW,225,1.6,3.1,38,0.00,,,0.04,fowsr,2013-02-27 20:06:00,
2013-02-27 15:11:00,62.8,42.9,29.28,NW,315,0.7,3.8,38,0.00,,,0.04,fowsr,2013-02-27 20:11:00,
2013-02-27 15:16:00,62.6,42.7,29.28,SE,135,0.7,1.6,38,0.00,,,0.04,fowsr,2013-02-27 20:16:00,
2013-02-27 15:21:00,62.8,43.4,29.28,South,180,0.0,0.7,39,0.00,,,0.04,fowsr,2013-02-27 20:21:00,
2013-02-27 15:26:00,62.6,42.7,29.27,ENE,67,0.7,0.7,38,0.00,,,0.04,fowsr,2013-02-27 20:26:00,
2013-02-27 15:31:00,62.6,43.2,29.27,East,90,0.7,1.6,39,0.00,,,0.04,fowsr,2013-02-27 20:31:00,
2013-02-27 15:36:00,62.6,43.2,29.27,NW,315,0.7,3.1,39,0.00,,,0.04,fowsr,2013-02-27 20:36:00,
2013-02-27 15:41:00,62.6,43.2,29.27,SSE,157,2.2,3.8,39,0.00,,,0.04,fowsr,2013-02-27 20:41:00,
2013-02-27 15:46:00,62.2,43.4,29.27,NW,315,1.6,3.1,40,0.00,,,0.04,fowsr,2013-02-27 20:46:00,
2013-02-27 15:51:00,61.9,43.6,29.27,SE,135,3.1,6.9,41,0.00,,,0.02,fowsr,2013-02-27 20:51:00,
2013-02-27 15:56:00,61.7,43.4,29.27,West,270,1.6,4.5,41,0.00,,,0.02,fowsr,2013-02-27 20:56:00,
2013-02-27 16:06:00,61.7,43.9,29.27,SE,135,0.7,3.1,42,0.00,,,0.02,fowsr,2013-02-27 21:06:00,
2013-02-27 16:11:00,62.1,44.7,29.27,South,180,1.6,3.1,43,0.00,,,0.02,fowsr,2013-02-27 21:11:00,
2013-02-27 16:16:00,61.7,43.4,29.27,West,270,1.6,2.2,41,0.00,,,0.02,fowsr,2013-02-27 21:16:00,
2013-02-27 16:21:00,61.7,43.9,29.26,West,270,2.2,3.8,42,0.00,,,0.02,fowsr,2013-02-27 21:21:00,
2013-02-27 16:26:00,61.3,43.6,29.26,East,90,0.7,2.2,42,0.00,,,0.01,fowsr,2013-02-27 21:26:00,
2013-02-27 16:31:00,61.2,43.4,29.26,NW,315,0.0,0.7,42,0.00,,,0.01,fowsr,2013-02-27 21:31:00,
2013-02-27 16:36:00,61.2,43.9,29.26,SW,225,1.6,4.5,43,0.00,,,0.01,fowsr,2013-02-27 21:36:00,
2013-02-27 16:46:00,61.0,44.1,29.27,East,90,0.7,1.6,44,0.00,,,0.01,fowsr,2013-02-27 21:46:00,
2013-02-27 16:51:00,60.8,44.0,29.27,WSW,247,0.7,2.2,44,0.00,,,0.01,fowsr,2013-02-27 21:51:00,
2013-02-27 16:56:00,60.4,44.1,29.27,South,180,0.0,1.6,45,0.00,,,0.01,fowsr,2013-02-27 21:56:00,
2013-02-27 17:01:00,60.1,43.8,29.27,South,180,0.7,2.2,45,0.00,,,0.01,fowsr,2013-02-27 22:01:00,
2013-02-27 17:06:00,59.9,43.6,29.28,South,180,0.7,3.1,45,0.00,,,0.01,fowsr,2013-02-27 22:06:00,
2013-02-27 17:11:00,59.4,43.1,29.27,NE,45,0.7,2.2,45,0.00,,,0.01,fowsr,2013-02-27 22:11:00,
2013-02-27 17:21:00,58.6,43.7,29.27,East,90,0.0,1.6,48,0.00,,,0.01,fowsr,2013-02-27 22:21:00,
2013-02-27 17:26:00,58.3,43.4,29.28,ENE,67,0.0,0.7,48,0.00,,,0.01,fowsr,2013-02-27 22:26:00,
2013-02-27 17:31:00,57.9,43.5,29.28,South,180,0.0,0.7,49,0.00,,,0.01,fowsr,2013-02-27 22:31:00,
2013-02-27 17:36:00,57.6,43.5,29.28,NNE,22,0.0,0.7,50,0.00,,,0.01,fowsr,2013-02-27 22:36:00,
2013-02-27 17:41:00,57.4,43.4,29.28,NW,315,0.0,0.7,50,0.00,,,0.01,fowsr,2013-02-27 22:41:00,
2013-02-27 17:46:00,57.0,43.8,29.28,NW,315,0.0,0.7,52,0.00,,,0.01,fowsr,2013-02-27 22:46:00,
2013-02-27 17:51:00,56.7,43.5,29.28,West,270,0.0,0.7,52,0.00,,,0.01,fowsr,2013-02-27 22:51:00,
2013-02-27 17:56:00,56.3,43.1,29.28,South,180,0.0,2.2,52,0.00,,,0.01,fowsr,2013-02-27 22:56:00,
2013-02-27 18:01:00,56.1,43.3,29.28,SW,225,0.0,0.7,53,0.00,,,0.01,fowsr,2013-02-27 23:01:00,
2013-02-27 18:06:00,55.9,43.2,29.28,SW,225,0.0,1.6,53,0.00,,,0.01,fowsr,2013-02-27 23:06:00,
2013-02-27 18:11:00,55.6,42.9,29.28,SE,135,0.0,0.0,53,0.00,,,0.01,fowsr,2013-02-27 23:11:00,
2013-02-27 18:16:00,55.4,43.0,29.29,SE,135,0.0,0.0,54,0.00,,,0.01,fowsr,2013-02-27 23:16:00,
2013-02-27 18:26:00,54.1,42.6,29.29,SE,135,0.0,0.0,56,0.00,,,0.01,fowsr,2013-02-27 23:26:00,
2013-02-27 18:31:00,53.6,42.8,29.29,SE,135,0.0,0.0,58,0.00,,,0.01,fowsr,2013-02-27 23:31:00,
2013-02-27 18:36:00,53.2,42.8,29.29,East,90,0.0,0.7,59,0.00,,,0.01,fowsr,2013-02-27 23:36:00,
2013-02-27 18:41:00,52.7,42.6,29.30,SW,225,0.0,0.0,60,0.00,,,0.01,fowsr,2013-02-27 23:41:00,
2013-02-27 18:46:00,52.5,42.4,29.29,East,90,0.0,0.0,60,0.00,,,0.01,fowsr,2013-02-27 23:46:00,
2013-02-27 18:56:00,51.6,42.2,29.30,East,90,0.0,0.0,62,0.00,,,0.01,fowsr,2013-02-27 23:56:00,
2013-02-27 19:01:00,51.3,41.9,29.30,East,90,0.0,0.0,62,0.00,,,0.01,fowsr,2013-02-28 00:01:00,
2013-02-27 19:11:00,50.7,42.0,29.29,East,90,0.0,0.0,64,0.00,,,0.01,fowsr,2013-02-28 00:11:00,
2013-02-27 19:16:00,50.2,41.4,29.29,East,90,0.0,0.0,64,0.00,,,0.01,fowsr,2013-02-28 00:16:00,
2013-02-27 19:21:00,50.0,41.6,29.29,East,90,0.0,0.0,65,0.00,,,0.01,fowsr,2013-02-28 00:21:00,
2013-02-27 19:26:00,49.6,41.8,29.29,East,90,0.0,0.0,67,0.00,,,0.01,fowsr,2013-02-28 00:26:00,
2013-02-27 19:31:00,49.1,41.6,29.28,East,90,0.0,0.0,68,0.00,,,0.01,fowsr,2013-02-28 00:31:00,
2013-02-27 19:36:00,48.6,41.3,29.28,East,90,0.0,0.0,69,0.00,,,0.01,fowsr,2013-02-28 00:36:00,
2013-02-27 19:41:00,48.2,41.3,29.28,East,90,0.0,0.0,70,0.00,,,0.01,fowsr,2013-02-28 00:41:00,
2013-02-27 19:46:00,47.8,41.5,29.28,East,90,0.0,0.0,72,0.00,,,0.01,fowsr,2013-02-28 00:46:00,
2013-02-27 19:51:00,47.7,41.3,29.29,East,90,0.0,0.0,72,0.00,,,0.01,fowsr,2013-02-28 00:51:00,
2013-02-27 19:56:00,47.1,41.0,29.28,East,90,0.0,0.0,73,0.00,,,0.01,fowsr,2013-02-28 00:56:00,
2013-02-27 20:01:00,46.9,40.9,29.29,East,90,0.0,0.0,73,0.00,,,0.01,fowsr,2013-02-28 01:01:00,
2013-02-27 20:06:00,46.6,40.5,29.29,East,90,0.0,0.0,73,0.00,,,0.01,fowsr,2013-02-28 01:06:00,
2013-02-27 20:11:00,46.4,40.6,29.29,East,90,0.0,0.0,74,0.00,,,0.01,fowsr,2013-02-28 01:11:00,
2013-02-27 20:16:00,46.0,40.5,29.29,East,90,0.0,0.0,75,0.00,,,0.01,fowsr,2013-02-28 01:16:00,
2013-02-27 20:21:00,45.9,40.3,29.29,East,90,0.0,0.0,75,0.00,,,0.01,fowsr,2013-02-28 01:21:00,
2013-02-27 20:26:00,45.7,40.4,29.29,East,90,0.0,0.0,76,0.00,,,0.01,fowsr,2013-02-28 01:26:00,
2013-02-27 20:31:00,45.7,40.4,29.29,East,90,0.0,0.0,76,0.00,,,0.01,fowsr,2013-02-28 01:31:00,
2013-02-27 20:36:00,45.7,40.4,29.29,East,90,0.0,0.0,76,0.00,,,0.01,fowsr,2013-02-28 01:36:00,
2013-02-27 20:41:00,45.0,40.2,29.29,East,90,0.0,0.0,78,0.00,,,0.01,fowsr,2013-02-28 01:41:00,
2013-02-27 20:46:00,44.8,40.0,29.28,East,90,0.0,0.0,78,0.00,,,0.01,fowsr,2013-02-28 01:46:00,
2013-02-27 20:51:00,44.6,39.9,29.29,East,90,0.0,0.0,78,0.00,,,0.01,fowsr,2013-02-28 01:51:00,
2013-02-27 20:56:00,44.6,40.1,29.28,East,90,0.0,0.0,79,0.00,,,0.01,fowsr,2013-02-28 01:56:00,
2013-02-27 21:01:00,44.2,40.0,29.28,East,90,0.0,0.0,80,0.00,,,0.01,fowsr,2013-02-28 02:01:00,
2013-02-27 21:06:00,44.2,40.0,29.28,East,90,0.0,0.0,80,0.00,,,0.01,fowsr,2013-02-28 02:06:00,
2013-02-27 21:11:00,43.9,39.9,29.28,East,90,0.0,0.0,81,0.00,,,0.01,fowsr,2013-02-28 02:11:00,
2013-02-27 21:16:00,43.7,39.7,29.28,East,90,0.0,0.0,81,0.00,,,0.01,fowsr,2013-02-28 02:16:00,
2013-02-27 21:21:00,43.7,39.7,29.28,East,90,0.0,0.0,81,0.00,,,0.01,fowsr,2013-02-28 02:21:00,
2013-02-27 21:26:00,43.5,39.5,29.28,East,90,0.0,0.0,81,0.00,,,0.01,fowsr,2013-02-28 02:26:00,
2013-02-27 21:31:00,43.3,39.6,29.28,East,90,0.0,0.0,82,0.00,,,0.01,fowsr,2013-02-28 02:31:00,
2013-02-27 21:36:00,43.3,39.6,29.28,East,90,0.0,0.0,82,0.00,,,0.01,fowsr,2013-02-28 02:36:00,
2013-02-27 21:41:00,43.2,39.4,29.29,East,90,0.0,0.0,82,0.00,,,0.01,fowsr,2013-02-28 02:41:00,
2013-02-27 21:46:00,43.2,39.4,29.28,East,90,0.0,0.0,82,0.00,,,0.01,fowsr,2013-02-28 02:46:00,
2013-02-27 21:51:00,43.0,39.2,29.28,East,90,0.0,0.0,82,0.00,,,0.01,fowsr,2013-02-28 02:51:00,
2013-02-27 21:56:00,42.8,39.3,29.28,East,90,0.0,0.0,83,0.00,,,0.01,fowsr,2013-02-28 02:56:00,
2013-02-27 22:01:00,42.8,39.3,29.28,East,90,0.0,0.0,83,0.00,,,0.01,fowsr,2013-02-28 03:01:00,
2013-02-27 22:06:00,42.6,39.3,29.28,East,90,0.0,0.0,84,0.00,,,0.01,fowsr,2013-02-28 03:06:00,
2013-02-27 22:11:00,42.4,39.1,29.28,East,90,0.0,0.0,84,0.00,,,0.01,fowsr,2013-02-28 03:11:00,
2013-02-27 22:16:00,42.4,39.4,29.28,East,90,0.0,0.0,85,0.00,,,0.01,fowsr,2013-02-28 03:16:00,
2013-02-27 22:21:00,42.3,39.2,29.28,East,90,0.0,0.0,85,0.00,,,0.01,fowsr,2013-02-28 03:21:00,
2013-02-27 22:26:00,42.1,39.0,29.28,East,90,0.0,0.0,85,0.00,,,0.01,fowsr,2013-02-28 03:26:00,
2013-02-27 22:31:00,42.1,39.0,29.28,East,90,0.0,0.0,85,0.00,,,0.01,fowsr,2013-02-28 03:31:00,
2013-02-27 22:36:00,41.9,38.8,29.28,East,90,0.0,0.0,85,0.00,,,0.01,fowsr,2013-02-28 03:36:00,
2013-02-27 22:41:00,41.9,39.1,29.28,East,90,0.0,0.0,86,0.00,,,0.01,fowsr,2013-02-28 03:41:00,
2013-02-27 22:46:00,41.7,38.9,29.28,East,90,0.0,0.0,86,0.00,,,0.01,fowsr,2013-02-28 03:46:00,
2013-02-27 22:51:00,41.5,38.7,28.90,East,90,0.0,0.0,86,0.00,,,0.01,fowsr,2013-02-28 03:51:00,
2013-02-27 22:56:00,41.5,38.7,29.28,East,90,0.0,0.0,86,0.00,,,0.01,fowsr,2013-02-28 03:56:00,
2013-02-27 23:01:00,41.4,38.5,29.27,East,90,0.0,0.0,86,0.00,,,0.01,fowsr,2013-02-28 04:01:00,
2013-02-27 23:06:00,41.4,38.5,29.27,East,90,0.0,0.0,86,0.00,,,0.01,fowsr,2013-02-28 04:06:00,
2013-02-27 23:11:00,41.2,38.6,28.89,East,90,0.0,0.0,87,0.00,,,0.01,fowsr,2013-02-28 04:11:00,
2013-02-27 23:16:00,41.0,38.4,29.26,East,90,0.0,0.0,87,0.00,,,0.01,fowsr,2013-02-28 04:16:00,
2013-02-27 23:21:00,41.0,38.4,29.26,East,90,0.0,0.0,87,0.00,,,0.01,fowsr,2013-02-28 04:21:00,
2013-02-27 23:26:00,41.0,38.6,29.25,East,90,0.0,0.0,88,0.00,,,0.01,fowsr,2013-02-28 04:26:00,
2013-02-27 23:31:00,40.8,38.6,29.26,East,90,0.0,0.0,89,0.00,,,0.01,fowsr,2013-02-28 04:31:00,
2013-02-27 23:36:00,40.6,38.5,29.26,East,90,0.0,0.0,89,0.00,,,0.01,fowsr,2013-02-28 04:36:00,
2013-02-27 23:41:00,40.6,38.5,29.25,East,90,0.0,0.0,89,0.00,,,0.01,fowsr,2013-02-28 04:41:00,
2013-02-27 23:46:00,40.5,38.3,29.25,East,90,0.0,0.0,89,0.00,,,0.01,fowsr,2013-02-28 04:46:00,
2013-02-27 23:51:00,40.5,38.5,28.87,East,90,0.0,0.0,90,0.00,,,0.01,fowsr,2013-02-28 04:51:00,
2013-02-27 23:56:00,40.5,38.5,29.25,East,90,0.0,0.0,90,0.00,,,0.01,fowsr,2013-02-28 04:56:00,